^^
MeteoGriva-Weather Station Historical Data
Daily Summary for August 29, 2020 Units:  English    Metric   Both
Daily Weekly Monthly Yearly Custom
  High: Low: Average:
Temperature: 57.4 °F 43.7 °F 48.9 °F
Dew Point: 50 °F 39.6 °F 45 °F
Humidity: 99% 71% 87%
Wind Speed: 8.8mph 0mph 0.6mph
Wind Gust: 17.4mph - -
Wind- - South
Pressure: 29.8 in 29.7 in -
Precipitation: 0 in    
Historical Graphs
 
 
Tabular Data for August 29, 2020
Time Temperature Dew Point Pressure Wind Wind Speed Wind Gust Humidity Rainfall Rate (Hourly) solar
00:04 46.8 °F 43.5 °F 29.8 in Calm     88.7% 0 in 0 W/m2
00:09 46.4 °F 42.4 °F 29.8 in Calm     85.9% 0 in 0 W/m2
00:14 46.8 °F 41 °F 29.8 in Calm     80.7% 0 in 0 W/m2
00:19 49.1 °F 41.9 °F 29.8 in SSW 2 mph 7.6 mph 75.8% 0 in 0 W/m2
00:24 49.5 °F 41.4 °F 29.8 in South 2.1 mph 7.6 mph 73.4% 0 in 0 W/m2
00:29 49.8 °F 41.5 °F 29.8 in South 0.6 mph 4.9 mph 73.1% 0 in 0 W/m2
00:34 50.2 °F 41.9 °F 29.8 in South 1.2 mph 7.6 mph 73% 0 in 0 W/m2
00:39 51.4 °F 43 °F 29.8 in SW 1.4 mph 10.1 mph 72.6% 0 in 0 W/m2
00:44 51.4 °F 43 °F 29.8 in South 1.1 mph 10.1 mph 72.6% 0 in 0 W/m2
00:49 51.4 °F 42.8 °F 29.8 in SSW 1.3 mph 7.6 mph 72% 0 in 0 W/m2
00:54 51.4 °F 43 °F 29.8 in South 1.3 mph 7.6 mph 72.6% 0 in 0 W/m2
00:59 51.3 °F 43 °F 29.8 in South 3 mph 10.1 mph 72.7% 0 in 0 W/m2
01:04 51.4 °F 42.4 °F 29.8 in SSE 2.5 mph 10.1 mph 71.2% 0 in 0 W/m2
01:09 51.6 °F 42.4 °F 29.8 in South 5.2 mph 10.1 mph 71% 0 in 0 W/m2
01:14 51.6 °F 42.6 °F 29.8 in South 1.2 mph 10.1 mph 71.3% 0 in 0 W/m2
01:19 51.4 °F 43.2 °F 29.8 in Calm   4.9 mph 72.8% 0 in 0 W/m2
01:24 51.4 °F 43.3 °F 29.8 in SSE 0.2 mph 4.9 mph 73.4% 0 in 0 W/m2
01:29 51.3 °F 44.2 °F 29.8 in Calm   2.5 mph 77.3% 0 in 0 W/m2
01:34 50.9 °F 44.4 °F 29.8 in Calm     78.9% 0 in 0 W/m2
01:39 48.7 °F 42.4 °F 29.8 in Calm     78.7% 0 in 0 W/m2
01:44 48.7 °F 41.9 °F 29.8 in Calm     77% 0 in 0 W/m2
01:49 48.9 °F 42.3 °F 29.8 in SE 0.1 mph 2.5 mph 77.4% 0 in 0 W/m2
01:54 49.1 °F 41.7 °F 29.8 in South 2.3 mph 10.1 mph 75.4% 0 in 0 W/m2
01:59 51.6 °F 43.2 °F 29.8 in South 2.9 mph 7.6 mph 72.6% 0 in 0 W/m2
02:04 52 °F 43.5 °F 29.8 in South 1.4 mph 7.6 mph 72.8% 0 in 0 W/m2
02:09 52 °F 43.5 °F 29.8 in South 2.2 mph 10.1 mph 73% 0 in 0 W/m2
02:14 52 °F 43.5 °F 29.8 in SSE 1.5 mph 12.5 mph 73% 0 in 0 W/m2
02:19 51.8 °F 43.7 °F 29.8 in South 1.6 mph 4.9 mph 73.9% 0 in 0 W/m2
02:24 51.8 °F 43.7 °F 29.8 in South 0.8 mph 7.6 mph 74% 0 in 0 W/m2
02:29 51.8 °F 43.5 °F 29.8 in South 0.7 mph 4.9 mph 73.5% 0 in 0 W/m2
02:34 51.8 °F 43.3 °F 29.8 in Calm   4.9 mph 73% 0 in 0 W/m2
02:39 51.4 °F 43.5 °F 29.8 in NE 0.2 mph 2.5 mph 74.6% 0 in 0 W/m2
02:44 51.4 °F 43.3 °F 29.8 in Calm     73.9% 0 in 0 W/m2
02:49 51.4 °F 43.5 °F 29.8 in NE 0.1 mph 2.5 mph 74.2% 0 in 0 W/m2
02:54 51.4 °F 43.9 °F 29.8 in SE 0.1 mph 2.5 mph 75.8% 0 in 0 W/m2
02:59 49.6 °F 43.3 °F 29.8 in Calm   2.5 mph 78.7% 0 in 0 W/m2
03:04 49.3 °F 44.2 °F 29.8 in Calm   4.9 mph 82.4% 0 in 0 W/m2
03:09 48.9 °F 43.7 °F 29.8 in Calm     82% 0 in 0 W/m2
03:14 48.6 °F 43.5 °F 29.8 in Calm     82.6% 0 in 0 W/m2
03:19 46.6 °F 42.8 °F 29.8 in NNW 1.1 mph 7.6 mph 86.3% 0 in 0 W/m2
03:24 46.2 °F 42.1 °F 29.8 in NE 0.1 mph 4.9 mph 85.1% 0 in 0 W/m2
03:29 46.4 °F 41.9 °F 29.8 in NNE 0.1 mph 4.9 mph 84.1% 0 in 0 W/m2
03:34 46.6 °F 42.8 °F 29.8 in Calm     86.3% 0 in 0 W/m2
03:39 46 °F 42.8 °F 29.8 in Calm     88.4% 0 in 0 W/m2
03:44 45.9 °F 42.6 °F 29.8 in Calm   2.5 mph 88.6% 0 in 0 W/m2
03:49 45.7 °F 43 °F 29.8 in Calm     90% 0 in 0 W/m2
03:54 45.5 °F 42.8 °F 29.8 in Calm     90% 0 in 0 W/m2
03:59 45.1 °F 42.6 °F 29.8 in NNW 0.7 mph 4.9 mph 90.7% 0 in 0 W/m2
04:04 45 °F 42.3 °F 29.7 in NNW 0.5 mph 4.9 mph 90.1% 0 in 0 W/m2
04:09 45.1 °F 40.8 °F 29.7 in South 0.7 mph 7.6 mph 84.7% 0 in 0 W/m2
04:14 45.9 °F 39.6 °F 29.7 in South 0.5 mph 7.6 mph 78.4% 0 in 0 W/m2
04:19 46.6 °F 42.6 °F 29.7 in Calm     86.1% 0 in 0 W/m2
04:24 46.4 °F 43.7 °F 29.7 in Calm     89.7% 0 in 0 W/m2
04:29 46.2 °F 43.7 °F 29.7 in NNW 0.8 mph 2.5 mph 91% 0 in 0 W/m2
04:34 45.9 °F 43.5 °F 29.7 in NNW 1.2 mph 4.9 mph 91.2% 0 in 0 W/m2
04:39 45.3 °F 43 °F 29.7 in Calm     91.7% 0 in 0 W/m2
04:44 45 °F 42.3 °F 29.7 in Calm     89.9% 0 in 0 W/m2
04:49 45 °F 41.7 °F 29.7 in Calm     88.1% 0 in 0 W/m2
04:54 45.3 °F 40.3 °F 29.7 in Calm     81.9% 0 in 0 W/m2
04:59 48 °F 41.9 °F 29.7 in NNW 0.1 mph 2.5 mph 79.2% 0 in 0 W/m2
05:04 48.7 °F 45.1 °F 29.7 in NNW 0.4 mph 4.9 mph 87.2% 0 in 0 W/m2
05:09 48.2 °F 45.3 °F 29.7 in NNW 0.2 mph 4.9 mph 90% 0 in 0 W/m2
05:14 47.5 °F 44.8 °F 29.7 in Calm   2.5 mph 90% 0 in 0 W/m2
05:19 46 °F 43.2 °F 29.7 in Calm     89.3% 0 in 0 W/m2
05:24 45.3 °F 42.3 °F 29.7 in NNW 0.2 mph 2.5 mph 89% 0 in 0 W/m2
05:29 45.3 °F 42.3 °F 29.7 in NNW 1.5 mph 4.9 mph 89% 0 in 0 W/m2
05:34 45.3 °F 42.3 °F 29.7 in NNW 0.6 mph 4.9 mph 89% 0 in 0 W/m2
05:39 45.5 °F 42.4 °F 29.7 in Calm     89% 0 in 0 W/m2
05:44 45.3 °F 42.4 °F 29.7 in Calm     89.2% 0 in 0 W/m2
05:49 45.3 °F 42.6 °F 29.7 in Calm     90% 0 in 0 W/m2
05:54 45.3 °F 42.6 °F 29.7 in Calm     90% 0 in 0 W/m2
05:59 45.1 °F 42.4 °F 29.7 in Calm     90% 0 in 0 W/m2
06:04 45.1 °F 42.1 °F 29.7 in NNW 0.2 mph 2.5 mph 89.2% 0 in 0 W/m2
06:09 45.1 °F 41.9 °F 29.7 in North 0.4 mph 4.9 mph 88.4% 0 in 0 W/m2
06:14 45.3 °F 42.3 °F 29.7 in Calm     89% 0 in 0 W/m2
06:19 45.3 °F 42.6 °F 29.7 in Calm     89.7% 0 in 0 W/m2
06:24 45.5 °F 42.3 °F 29.7 in Calm   2.5 mph 88.4% 0 in 0 W/m2
06:29 45.5 °F 42.1 °F 29.7 in North 0.2 mph 2.5 mph 87.9% 0 in 0 W/m2
06:34 45.7 °F 42.1 °F 29.7 in NNW 0.6 mph 4.9 mph 87% 0 in 0 W/m2
06:39 45.9 °F 42.3 °F 29.7 in North 0.4 mph 4.9 mph 87% 0 in 0 W/m2
06:44 46 °F 42.6 °F 29.7 in Calm     87.6% 0 in 0 W/m2
06:49 46 °F 42.8 °F 29.7 in Calm     88.7% 0 in 0 W/m2
06:54 46 °F 43.2 °F 29.7 in Calm     89.7% 0 in 0 W/m2
06:59 45.5 °F 42.8 °F 29.7 in Calm     90% 0 in 0 W/m2
07:04 45 °F 42.3 °F 29.7 in Calm     90.2% 0 in 0 W/m2
07:09 45 °F 42.4 °F 29.7 in Calm     91% 0 in 0 W/m2
07:14 44.8 °F 42.6 °F 29.7 in Calm     92.2% 0 in 0 W/m2
07:19 44.2 °F 42.3 °F 29.7 in Calm     93% 0 in 0 W/m2
07:24 43.7 °F 41.7 °F 29.7 in Calm     92.8% 0 in 0 W/m2
07:29 43.9 °F 41.7 °F 29.7 in Calm     92% 0 in 0 W/m2
07:34 43.9 °F 41.7 °F 29.7 in Calm     91.8% 0 in 0 W/m2
07:39 43.9 °F 41.9 °F 29.7 in Calm     93% 0 in 0 W/m2
07:44 43.7 °F 41.4 °F 29.7 in Calm     91.8% 0 in 0 W/m2
07:49 43.9 °F 41.4 °F 29.7 in Calm     91% 0 in 0 W/m2
07:54 43.9 °F 41.7 °F 29.7 in Calm     92% 0 in 2 W/m2
07:59 44.1 °F 41.9 °F 29.7 in Calm     92% 0 in 5 W/m2
08:04 44.1 °F 41.9 °F 29.7 in Calm     92.2% 0 in 8 W/m2
08:09 44.1 °F 41.5 °F 29.7 in Calm     91% 0 in 10 W/m2
08:14 44.2 °F 41.4 °F 29.7 in Calm     89.3% 0 in 13 W/m2
08:19 45 °F 42.1 °F 29.7 in Calm     89.6% 0 in 20 W/m2
08:24 45.7 °F 42.4 °F 29.7 in Calm     88.4% 0 in 24 W/m2
08:29 45.9 °F 41.9 °F 29.7 in Calm     85.9% 0 in 30 W/m2
08:34 46.2 °F 41.9 °F 29.7 in Calm     85% 0 in 40 W/m2
08:39 46.6 °F 42.4 °F 29.7 in Calm   2.5 mph 85.2% 0 in 47 W/m2
08:44 46.9 °F 43.2 °F 29.7 in Calm   2.5 mph 86.3% 0 in 49 W/m2
08:49 46.9 °F 43.2 °F 29.7 in Calm     86.3% 0 in 48 W/m2
08:54 47.1 °F 43.3 °F 29.7 in Calm     86.6% 0 in 64 W/m2
08:59 47.5 °F 43 °F 29.7 in Calm     84.5% 0 in 59 W/m2
09:04 49.1 °F 44.2 °F 29.7 in Calm     83.2% 0 in 80 W/m2
09:09 49.3 °F 43.5 °F 29.7 in Calm     80.7% 0 in 94 W/m2
09:14 49.5 °F 44.4 °F 29.7 in North 0.9 mph 4.9 mph 82.6% 0 in 89 W/m2
09:19 49.5 °F 44.8 °F 29.7 in NNE 0.1 mph 4.9 mph 84.1% 0 in 83 W/m2
09:24 49.1 °F 44.1 °F 29.7 in Calm     82.4% 0 in 88 W/m2
09:29 49.3 °F 44.1 °F 29.7 in Calm     82% 0 in 82 W/m2
09:34 49.5 °F 44.1 °F 29.7 in Calm     81.6% 0 in 96 W/m2
09:39 49.8 °F 44.4 °F 29.7 in Calm     81.9% 0 in 91 W/m2
09:44 50.7 °F 45.1 °F 29.7 in Calm     81% 0 in 96 W/m2
09:49 50.9 °F 45.3 °F 29.7 in Calm     81.1% 0 in 99 W/m2
09:54 50.9 °F 45.3 °F 29.7 in Calm     80.9% 0 in 98 W/m2
09:59 50.9 °F 45.5 °F 29.7 in Calm     81.6% 0 in 94 W/m2
10:04 51.8 °F 45.7 °F 29.7 in Calm     79.6% 0 in 102 W/m2
10:09 52 °F 45.3 °F 29.7 in Calm     78% 0 in 99 W/m2
10:14 52.3 °F 45.3 °F 29.7 in Calm     77.1% 0 in 96 W/m2
10:19 52.5 °F 45.7 °F 29.7 in Calm     77.4% 0 in 94 W/m2
10:24 52.2 °F 46 °F 29.7 in Calm   2.5 mph 79.6% 0 in 118 W/m2
10:29 52.3 °F 45.9 °F 29.7 in Calm     78.7% 0 in 135 W/m2
10:34 52.5 °F 45.5 °F 29.7 in Calm     77.1% 0 in 132 W/m2
10:39 53.1 °F 45 °F 29.7 in Calm     74% 0 in 136 W/m2
10:44 57.4 °F 48.9 °F 29.7 in Calm     73.8% 0 in 143 W/m2
10:49 57 °F 49.1 °F 29.7 in Calm     75% 0 in 135 W/m2
10:54 56.7 °F 48.9 °F 29.7 in Calm     75.2% 0 in 139 W/m2
10:59 56.7 °F 47.7 °F 29.7 in SE 0.1 mph 2.5 mph 72% 0 in 141 W/m2
11:04 57 °F 48.4 °F 29.7 in South 0.2 mph 7.6 mph 72.9% 0 in 148 W/m2
11:09 57 °F 48.2 °F 29.7 in Calm     72.7% 0 in 146 W/m2
11:14 56.8 °F 49.6 °F 29.7 in NNE 1.5 mph 7.6 mph 77% 0 in 145 W/m2
11:19 56.3 °F 50 °F 29.7 in ENE 1 mph 7.6 mph 79.2% 0 in 149 W/m2
11:24 54.9 °F 47.8 °F 29.7 in ESE 0.2 mph 2.5 mph 77% 0 in 147 W/m2
11:29 54.9 °F 47.8 °F 29.7 in ESE 0.4 mph 4.9 mph 77.3% 0 in 157 W/m2
11:34 54.7 °F 48 °F 29.7 in Calm     78.2% 0 in 164 W/m2
11:39 54.5 °F 47.3 °F 29.7 in Calm     76.5% 0 in 164 W/m2
11:44 54.7 °F 47.5 °F 29.7 in ENE 0.1 mph 2.5 mph 76.6% 0 in 169 W/m2
11:49 54.7 °F 47.3 °F 29.7 in ENE 0.3 mph 2.5 mph 75.9% 0 in 178 W/m2
11:54 55 °F 46.8 °F 29.7 in Calm   2.5 mph 74% 0 in 185 W/m2
11:59 55.2 °F 47.3 °F 29.7 in ENE 0.1 mph 2.5 mph 74.7% 0 in 179 W/m2
12:04 55.4 °F 48.2 °F 29.7 in NE 1.6 mph 12.5 mph 76.4% 0 in 172 W/m2
12:09 55.4 °F 48.6 °F 29.7 in ENE 1 mph 7.6 mph 77.6% 0 in 169 W/m2
12:14 55.4 °F 48.4 °F 29.7 in NE 1.1 mph 7.6 mph 76.8% 0 in 134 W/m2
12:19 55.2 °F 48.2 °F 29.7 in NE 0.5 mph 7.6 mph 76.8% 0 in 130 W/m2
12:24 55.6 °F 48.6 °F 29.7 in ENE 1.5 mph 7.6 mph 77.1% 0 in 134 W/m2
12:29 55.4 °F 48.7 °F 29.7 in North 6 mph 12.5 mph 78% 0 in 146 W/m2
12:34 55 °F 48.6 °F 29.7 in North 7.7 mph 17.4 mph 78.7% 0 in 147 W/m2
12:39 54.5 °F 48.4 °F 29.7 in NNW 8.8 mph 17.4 mph 79.9% 0 in 269 W/m2
12:44 53.4 °F 47.3 °F 29.7 in North 6.6 mph 15 mph 79.1% 0 in 267 W/m2
12:49 53.4 °F 46.9 °F 29.7 in NNW 6 mph 15 mph 78.7% 0 in 250 W/m2
12:54 53.4 °F 46.9 °F 29.7 in North 5.6 mph 15 mph 78.4% 0 in 290 W/m2
12:59 53.4 °F 46.8 °F 29.7 in North 7 mph 17.4 mph 78% 0 in 318 W/m2
13:04 53.8 °F 47.3 °F 29.7 in North 6 mph 15 mph 78.1% 0 in 267 W/m2
13:09 53.8 °F 47.5 °F 29.7 in North 5.2 mph 10.1 mph 78.8% 0 in 168 W/m2
13:14 53.8 °F 47.8 °F 29.7 in NNW 2.5 mph 10.1 mph 80% 0 in 134 W/m2
13:19 53.8 °F 47.8 °F 29.7 in North 2.7 mph 10.1 mph 80.1% 0 in 273 W/m2
13:24 53.8 °F 47.7 °F 29.7 in NNE 3 mph 7.6 mph 79.7% 0 in 233 W/m2
13:29 53.8 °F 47.7 °F 29.7 in North 2.5 mph 7.6 mph 79.3% 0 in 257 W/m2
13:34 53.8 °F 47.5 °F 29.7 in North 3.9 mph 12.5 mph 79% 0 in 299 W/m2
13:39 53.8 °F 47.5 °F 29.7 in North 4 mph 12.5 mph 79% 0 in 272 W/m2
13:44 53.6 °F 47.5 °F 29.7 in North 3.6 mph 7.6 mph 79.9% 0 in 349 W/m2
13:49 53.4 °F 47.3 °F 29.7 in NE 1.7 mph 10.1 mph 79.4% 0 in 164 W/m2
13:54 53.4 °F 47.5 °F 29.7 in North 2.5 mph 10.1 mph 80% 0 in 423 W/m2
13:59 53.4 °F 47.5 °F 29.7 in North 3.3 mph 10.1 mph 80% 0 in 298 W/m2
14:04 54.1 °F 48 °F 29.7 in North 1.7 mph 4.9 mph 79.4% 0 in 448 W/m2
14:09 54.3 °F 48 °F 29.7 in NNE 4.5 mph 12.5 mph 79.1% 0 in 232 W/m2
14:14 54.1 °F 48 °F 29.7 in North 2.7 mph 10.1 mph 80% 0 in 225 W/m2
14:19 54.1 °F 48 °F 29.7 in NNW 0.1 mph 7.6 mph 79.7% 0 in 145 W/m2
14:24 54.3 °F 47.8 °F 29.7 in North 1.5 mph 7.6 mph 78.8% 0 in 202 W/m2
14:29 54.3 °F 48.2 °F 29.7 in North 0.4 mph 4.9 mph 79.7% 0 in 123 W/m2
14:34 54.1 °F 47.8 °F 29.7 in NNE 0.2 mph 2.5 mph 79.1% 0 in 96 W/m2
14:39 54.1 °F 48 °F 29.7 in NNE 1.9 mph 7.6 mph 80.1% 0 in 81 W/m2
14:44 53.1 °F 47.3 °F 29.7 in NNW 2.9 mph 10.1 mph 81.1% 0 in 63 W/m2
14:49 52.3 °F 46.9 °F 29.7 in North 3.7 mph 10.1 mph 81.9% 0 in 67 W/m2
14:54 52.3 °F 46.9 °F 29.7 in NNW 3.4 mph 7.6 mph 82% 0 in 67 W/m2
14:59 52.3 °F 46.9 °F 29.7 in NNW 3.2 mph 7.6 mph 82% 0 in 52 W/m2
15:04 52 °F 46.8 °F 29.7 in NNW 1.9 mph 7.6 mph 82.6% 0 in 43 W/m2
15:09 51.6 °F 46.6 °F 29.7 in Calm   4.9 mph 83.1% 0 in 48 W/m2
15:14 51.6 °F 47.1 °F 29.7 in North 1.4 mph 10.1 mph 84.9% 0 in 65 W/m2
15:19 51.6 °F 48 °F 29.7 in Calm     87.7% 0 in 72 W/m2
15:24 51.3 °F 48.7 °F 29.7 in Calm     91.2% 0 in 80 W/m2
15:29 50.9 °F 48.4 °F 29.7 in Calm     91.1% 0 in 84 W/m2
15:34 50.9 °F 48.7 °F 29.7 in Calm     92.2% 0 in 76 W/m2
15:39 50.9 °F 48.6 °F 29.7 in Calm     91.8% 0 in 79 W/m2
15:44 51.1 °F 48.6 °F 29.7 in Calm     91.1% 0 in 99 W/m2
15:49 51.1 °F 48.7 °F 29.7 in Calm     91.6% 0 in 271 W/m2
15:54 51.3 °F 48.4 °F 29.7 in Calm     89.4% 0 in 262 W/m2
15:59 51.4 °F 47.8 °F 29.7 in Calm     87.2% 0 in 256 W/m2
16:04 52 °F 48.4 °F 29.7 in Calm     87.2% 0 in 203 W/m2
16:09 52.2 °F 48.6 °F 29.7 in Calm     87.1% 0 in 90 W/m2
16:14 52.2 °F 48.6 °F 29.7 in Calm     87.4% 0 in 87 W/m2
16:19 52.2 °F 48.6 °F 29.7 in Calm     87.9% 0 in 73 W/m2
16:24 51.8 °F 48.2 °F 29.7 in Calm     87.8% 0 in 54 W/m2
16:29 51.4 °F 48 °F 29.7 in Calm     87.8% 0 in 44 W/m2
16:34 51.4 °F 47.8 °F 29.7 in Calm     87.2% 0 in 69 W/m2
16:39 51.4 °F 47.7 °F 29.7 in ENE 0.5 mph 4.9 mph 86.7% 0 in 69 W/m2
16:44 51.3 °F 47.5 °F 29.7 in North 1.4 mph 7.6 mph 86.1% 0 in 45 W/m2
16:49 51.1 °F 47.3 °F 29.7 in North 0.9 mph 4.9 mph 86.8% 0 in 26 W/m2
16:54 51.1 °F 47.3 °F 29.7 in Calm   4.9 mph 87% 0 in 24 W/m2
16:59 50.9 °F 47.5 °F 29.7 in Calm     87.9% 0 in 22 W/m2
17:04 50.5 °F 47.5 °F 29.7 in Calm     88.9% 0 in 16 W/m2
17:09 50 °F 46.9 °F 29.7 in Calm     89.1% 0 in 12 W/m2
17:14 50 °F 46.9 °F 29.7 in Calm     89.4% 0 in 9 W/m2
17:19 50 °F 47.1 °F 29.7 in Calm     89.9% 0 in 7 W/m2
17:24 49.6 °F 46.8 °F 29.7 in Calm     90% 0 in 5 W/m2
17:29 49.5 °F 46.6 °F 29.7 in Calm     90.2% 0 in 3 W/m2
17:34 49.3 °F 46.8 °F 29.7 in Calm     91% 0 in 3 W/m2
17:39 49.3 °F 46.9 °F 29.7 in Calm     91.2% 0 in 0 W/m2
17:44 48.9 °F 46.6 °F 29.7 in Calm     92% 0 in 0 W/m2
17:49 48.4 °F 46.2 °F 29.7 in Calm     92% 0 in 0 W/m2
17:54 48.4 °F 46.2 °F 29.7 in Calm     92.2% 0 in 0 W/m2
17:59 48.4 °F 46.4 °F 29.7 in Calm     92.9% 0 in 0 W/m2
18:04 48.4 °F 46.4 °F 29.7 in Calm     92.9% 0 in 0 W/m2
18:09 48.6 °F 46.4 °F 29.7 in Calm     92.2% 0 in 0 W/m2
18:14 48.4 °F 46.4 °F 29.7 in Calm     93.1% 0 in 0 W/m2
18:19 48.4 °F 46.8 °F 29.7 in Calm     94% 0 in 0 W/m2
18:24 48.4 °F 46.9 °F 29.7 in Calm     94.9% 0 in 0 W/m2
18:29 48.4 °F 46.8 °F 29.7 in Calm     93.8% 0 in 0 W/m2
18:34 48.2 °F 46.6 °F 29.7 in Calm     94% 0 in 0 W/m2
18:39 48.2 °F 46.8 °F 29.7 in Calm     94.6% 0 in 0 W/m2
18:44 47.8 °F 46.4 °F 29.7 in Calm     94.6% 0 in 0 W/m2
18:49 47.3 °F 45.7 °F 29.8 in Calm     94.4% 0 in 0 W/m2
18:54 47.1 °F 45.7 °F 29.8 in Calm     95% 0 in 0 W/m2
18:59 47.1 °F 45.7 °F 29.7 in Calm     95% 0 in 0 W/m2
19:04 47.1 °F 45.9 °F 29.7 in Calm     95.7% 0 in 0 W/m2
19:09 46.6 °F 45.7 °F 29.8 in Calm     96.6% 0 in 0 W/m2
19:14 46.6 °F 45.9 °F 29.8 in Calm     97% 0 in 0 W/m2
19:19 46.6 °F 45.9 °F 29.8 in Calm     97.3% 0 in 0 W/m2
19:24 46.4 °F 46 °F 29.8 in Calm     98.2% 0 in 0 W/m2
19:29 45.9 °F 45.7 °F 29.8 in Calm     99% 0 in 0 W/m2
19:34 45.9 °F 45.7 °F 29.8 in Calm     99% 0 in 0 W/m2
19:39 45.9 °F 45.7 °F 29.8 in Calm     99% 0 in 0 W/m2
19:44 45.7 °F 45.5 °F 29.8 in Calm     99% 0 in 0 W/m2
19:49 45.3 °F 45.1 °F 29.8 in Calm     99% 0 in 0 W/m2
19:54 45.1 °F 45 °F 29.8 in Calm     99% 0 in 0 W/m2
19:59 45.1 °F 45 °F 29.8 in Calm     99% 0 in 0 W/m2
20:04 45.1 °F 45 °F 29.8 in Calm     99% 0 in 0 W/m2
20:09 45 °F 44.6 °F 29.8 in Calm     99% 0 in 0 W/m2
20:14 44.8 °F 44.6 °F 29.8 in Calm     99% 0 in 0 W/m2
20:19 44.8 °F 44.6 °F 29.8 in Calm     99% 0 in 0 W/m2
20:24 44.8 °F 44.6 °F 29.8 in Calm     99% 0 in 0 W/m2
20:29 44.8 °F 44.6 °F 29.8 in Calm     99% 0 in 0 W/m2
20:34 44.8 °F 44.6 °F 29.8 in Calm     99% 0 in 0 W/m2
20:39 45 °F 44.8 °F 29.8 in Calm     99% 0 in 0 W/m2
20:44 45 °F 44.8 °F 29.8 in Calm     99% 0 in 0 W/m2
20:49 45.1 °F 45 °F 29.8 in Calm     99% 0 in 0 W/m2
20:54 45 °F 44.8 °F 29.8 in Calm     99% 0 in 0 W/m2
20:59 45 °F 44.8 °F 29.8 in Calm     99% 0 in 0 W/m2
21:04 44.8 °F 44.6 °F 29.8 in Calm     99% 0 in 0 W/m2
21:09 44.6 °F 44.4 °F 29.8 in Calm     99% 0 in 0 W/m2
21:14 44.4 °F 44.2 °F 29.8 in Calm     99% 0 in 0 W/m2
21:19 44.4 °F 44.2 °F 29.8 in Calm     99% 0 in 0 W/m2
21:24 44.2 °F 44.1 °F 29.8 in Calm     99% 0 in 0 W/m2
21:29 44.1 °F 43.9 °F 29.8 in Calm     99% 0 in 0 W/m2
21:34 44.1 °F 43.9 °F 29.8 in SSW 0.2 mph 2.5 mph 99% 0 in 0 W/m2
21:39 44.1 °F 43.9 °F 29.8 in SW 0.1 mph 2.5 mph 99% 0 in 0 W/m2
21:44 44.2 °F 44.1 °F 29.8 in Calm     99% 0 in 0 W/m2
21:49 44.1 °F 43.9 °F 29.8 in Calm     99% 0 in 0 W/m2
21:54 44.1 °F 43.9 °F 29.8 in Calm     99% 0 in 0 W/m2
21:59 44.1 °F 43.9 °F 29.8 in Calm     99% 0 in 0 W/m2
22:04 44.1 °F 43.9 °F 29.8 in Calm     99% 0 in 0 W/m2
22:09 45 °F 44.8 °F 29.8 in Calm     99% 0 in 0 W/m2
22:14 45 °F 44.8 °F 29.8 in Calm     99% 0 in 0 W/m2
22:19 45 °F 44.8 °F 29.8 in Calm     99% 0 in 0 W/m2
22:24 45.1 °F 45 °F 29.8 in Calm     99% 0 in 0 W/m2
22:29 45 °F 44.8 °F 29.8 in Calm     99% 0 in 0 W/m2
22:34 45 °F 44.8 °F 29.8 in Calm     99% 0 in 0 W/m2
22:39 45 °F 44.8 °F 29.8 in Calm     99% 0 in 0 W/m2
22:44 45 °F 44.8 °F 29.8 in Calm     99% 0 in 0 W/m2
22:49 45.1 °F 45 °F 29.8 in Calm     99% 0 in 0 W/m2
22:54 45.1 °F 45 °F 29.8 in Calm     99% 0 in 0 W/m2
22:59 45.1 °F 45 °F 29.8 in Calm   2.5 mph 99% 0 in 0 W/m2
23:04 45.3 °F 45.1 °F 29.8 in Calm   2.5 mph 99% 0 in 0 W/m2
23:09 45.5 °F 45.3 °F 29.8 in Calm     99% 0 in 0 W/m2
23:14 45.5 °F 45.3 °F 29.8 in Calm     99% 0 in 0 W/m2
23:19 45.5 °F 45.3 °F 29.8 in Calm     99% 0 in 0 W/m2
23:24 45.5 °F 45.3 °F 29.8 in Calm     99% 0 in 0 W/m2
23:29 45.5 °F 45.3 °F 29.8 in Calm     99% 0 in 0 W/m2
23:34 45.3 °F 45.1 °F 29.8 in Calm     99% 0 in 0 W/m2
23:39 45.3 °F 45.1 °F 29.8 in Calm     99% 0 in 0 W/m2
23:44 45.5 °F 45.3 °F 29.8 in Calm     99% 0 in 0 W/m2
23:49 45.3 °F 45.1 °F 29.8 in Calm     99% 0 in 0 W/m2
23:54 45.3 °F 45.1 °F 29.8 in Calm     99% 0 in 0 W/m2
23:59 45.1 °F 45 °F 29.8 in Calm     99% 0 in 0 W/m2
Juneau County Weather
Compliments of Weather Underground - 2 mb